Time;durP1;ratioP1;P1;durP2;ratioP2;P2;SDS_P1;SDS_P2;PMS_P1;PMS_P2;Temp;Humidity;BMP_temperature;BMP_pressure;BME280_temperature;BME280_humidity;BME280_pressure;Samples;Min_cycle;Max_cycle;Signal;HPM_P1;HPM_P2
2023/10/07 00:01:37;;;;;;;;;;;;;;;;;;5066310;28;19913;-76
2023/10/07 00:04:05;;;;;;;;;;;;;;;;;;5066935;28;19995;-77
2023/10/07 00:06:34;;;;;;;;;;;;;;;;;;5057472;28;19936;-77
2023/10/07 00:09:01;;;;;;;;;;;;;;;;;;5072788;28;19914;-76
2023/10/07 00:11:27;;;;;;;;;;;;;;;;;;5046323;28;20407;-75
2023/10/07 00:13:54;;;;;;;;;;;;;;;;;;5065186;28;19919;-77
2023/10/07 00:16:23;;;;;;;;;;;;;;;;;;5057804;28;19913;-75
2023/10/07 00:18:49;;;;;;;;;;;;;;;;;;5069844;28;19909;-75
2023/10/07 00:21:23;;;;;;;;;;;;;;;;;;5062108;28;19917;-72
2023/10/07 00:23:52;;;;;;;;;;;;;;;;;;5065078;28;19919;-74
2023/10/07 00:26:18;;;;;;;;;;;;;;;;;;5057800;28;19920;-76
2023/10/07 00:28:54;;;;;;;;;;;;;;;;;;5069638;28;19940;-75
2023/10/07 00:31:25;;;;;;;;;;;;;;;;;;5060575;28;19986;-74
2023/10/07 00:34:02;;;;;;;;;;;;;;;;;;5060795;28;19913;-76
2023/10/07 00:39:00;;;;;;;;;;;;;;;;;;5061662;28;20441;-73
2023/10/07 00:41:29;;;;;;;;;;;;;;;;;;5061109;28;20006;-73
2023/10/07 00:43:59;;;;;;;;;;;;;;;;;;5065802;28;19915;-76
2023/10/07 00:46:28;;;;;;;;;;;;;;;;;;5056354;28;19994;-76
2023/10/07 00:48:57;;;;;;;;;;;;;;;;;;5068995;28;20291;-75
2023/10/07 00:51:46;;;;;;;;;;;;;;;;;;5035230;28;20015;-76
2023/10/07 00:57:08;;;;;;;;;;;;;;;;;;5056420;28;19916;-74
2023/10/07 00:59:35;;;;;;;;;;;;;;;;;;5062941;28;19916;-75
2023/10/07 01:02:05;;;;;;;;;;;;;;;;;;5058507;28;20000;-75
2023/10/07 01:04:43;;;;;;;;;;;;;;;;;;5050420;28;19982;-75
2023/10/07 01:07:19;;;;;;;;;;;;;;;;;;5058363;28;20390;-75
2023/10/07 01:09:45;;;;;;;;;;;;;;;;;;5047185;28;19909;-75
2023/10/07 01:12:11;;;;;;;;;;;;;;;;;;5064663;28;20380;-76
2023/10/07 01:14:47;;;;;;;;;;;;;;;;;;5062675;28;19920;-78
2023/10/07 01:17:14;;;;;;;;;;;;;;;;;;5043035;28;19913;-77
2023/10/07 01:19:51;;;;;;;;;;;;;;;;;;5052939;28;20327;-76
2023/10/07 01:22:21;;;;;;;;;;;;;;;;;;5067507;28;20364;-76
2023/10/07 01:24:49;;;;;;;;;;;;;;;;;;5067703;28;19951;-75
2023/10/07 01:27:21;;;;;;;;;;;;;;;;;;5058681;28;20359;-75
2023/10/07 01:29:59;;;;;;;;;;;;;;;;;;5063277;28;20003;-73
2023/10/07 01:32:31;;;;;;;;;;;;;;;;;;5055877;28;19916;-74
2023/10/07 01:34:57;;;;;;;;;;;;;;;;;;5067505;28;19952;-74
2023/10/07 01:37:25;;;;;;;;;;;;;;;;;;5053158;28;19952;-74
2023/10/07 01:39:52;;;;;;;;;;;;;;;;;;5064198;28;19920;-74
2023/10/07 01:42:37;;;;;;;;;;;;;;;;;;5071604;28;19916;-74
2023/10/07 01:45:22;;;;;;;;;;;;;;;;;;5061721;28;20380;-74
2023/10/07 01:47:49;;;;;;;;;;;;;;;;;;5064852;28;19909;-74
2023/10/07 01:50:15;;;;;;;;;;;;;;;;;;5045368;28;19909;-74
2023/10/07 01:52:45;;;;;;;;;;;;;;;;;;5076154;28;19908;-75
2023/10/07 01:55:11;;;;;;;;;;;;;;;;;;5070633;28;19909;-74
2023/10/07 01:57:40;;;;;;;;;;;;;;;;;;5045561;28;19973;-75
2023/10/07 02:00:07;;;;;;;;;;;;;;;;;;5058085;28;19917;-74
2023/10/07 02:02:42;;;;;;;;;;;;;;;;;;5067680;28;19909;-75
2023/10/07 02:05:11;;;;;;;;;;;;;;;;;;5056615;28;20053;-73
2023/10/07 02:07:39;;;;;;;;;;;;;;;;;;5070841;28;19913;-72
2023/10/07 02:10:04;;;;;;;;;;;;;;;;;;5057587;28;19931;-73
2023/10/07 02:12:32;;;;;;;;;;;;;;;;;;5067356;28;20003;-72
2023/10/07 02:15:07;;;;;;;;;;;;;;;;;;5054787;28;19908;-73
2023/10/07 02:17:33;;;;;;;;;;;;;;;;;;5060945;28;19967;-73
2023/10/07 02:20:20;;;;;;;;;;;;;;;;;;5064253;28;19913;-73
2023/10/07 02:22:45;;;;;;;;;;;;;;;;;;5054286;28;19920;-72
2023/10/07 02:25:11;;;;;;;;;;;;;;;;;;5064114;28;19924;-72
2023/10/07 02:27:42;;;;;;;;;;;;;;;;;;5061947;28;20286;-73
2023/10/07 02:30:19;;;;;;;;;;;;;;;;;;5071534;28;19908;-74
2023/10/07 02:32:46;;;;;;;;;;;;;;;;;;5055127;28;19925;-75
2023/10/07 02:35:17;;;;;;;;;;;;;;;;;;5065233;28;19908;-75
2023/10/07 02:37:49;;;;;;;;;;;;;;;;;;5051866;28;19940;-74
2023/10/07 02:40:35;;;;;;;;;;;;;;;;;;5066082;28;19912;-73
2023/10/07 02:43:06;;;;;;;;;;;;;;;;;;5055546;28;20003;-73
2023/10/07 02:45:39;;;;;;;;;;;;;;;;;;5060101;28;19919;-74
2023/10/07 02:48:10;;;;;;;;;;;;;;;;;;5056933;28;20411;-74
2023/10/07 02:50:39;;;;;;;;;;;;;;;;;;5068384;28;19916;-74
2023/10/07 02:53:11;;;;;;;;;;;;;;;;;;5061765;28;19915;-74
2023/10/07 02:58:13;;;;;;;;;;;;;;;;;;5056155;28;19909;-75
2023/10/07 03:00:39;;;;;;;;;;;;;;;;;;5049081;28;19917;-75
2023/10/07 03:05:44;;;;;;;;;;;;;;;;;;5060187;28;20599;-75
2023/10/07 03:08:17;;;;;;;;;;;;;;;;;;5065169;28;20011;-75
2023/10/07 03:10:44;;;;;;;;;;;;;;;;;;5067649;28;20429;-75
2023/10/07 03:13:10;;;;;;;;;;;;;;;;;;5050753;28;19935;-75
2023/10/07 03:18:03;;;;;;;;;;;;;;;;;;5057507;28;20526;-75
2023/10/07 03:20:31;;;;;;;;;;;;;;;;;;5058633;28;19913;-75
2023/10/07 03:23:15;;;;;;;;;;;;;;;;;;5051839;28;19908;-75
2023/10/07 03:28:19;;;;;;;;;;;;;;;;;;5068190;28;19908;-75
2023/10/07 03:30:52;;;;;;;;;;;;;;;;;;5057627;28;20007;-74
2023/10/07 03:33:18;;;;;;;;;;;;;;;;;;5073286;28;20648;-75
2023/10/07 03:38:25;;;;;;;;;;;;;;;;;;5073475;28;19912;-75
2023/10/07 03:40:54;;;;;;;;;;;;;;;;;;5054624;28;19913;-75
2023/10/07 03:43:20;;;;;;;;;;;;;;;;;;5064036;28;19912;-76
2023/10/07 03:45:46;;;;;;;;;;;;;;;;;;5062367;28;19915;-76
2023/10/07 03:48:24;;;;;;;;;;;;;;;;;;5054750;28;20023;-76
2023/10/07 03:50:59;;;;;;;;;;;;;;;;;;5070179;28;19916;-75
2023/10/07 03:53:25;;;;;;;;;;;;;;;;;;5062476;28;19919;-76
2023/10/07 03:55:51;;;;;;;;;;;;;;;;;;5047421;28;19908;-75
2023/10/07 03:58:20;;;;;;;;;;;;;;;;;;5058344;28;19915;-75
2023/10/07 04:00:46;;;;;;;;;;;;;;;;;;5056500;28;19919;-76
2023/10/07 04:03:12;;;;;;;;;;;;;;;;;;5066608;28;19913;-74
2023/10/07 04:05:42;;;;;;;;;;;;;;;;;;5062912;28;19940;-75
2023/10/07 04:08:08;;;;;;;;;;;;;;;;;;5073016;28;19953;-75
2023/10/07 04:10:37;;;;;;;;;;;;;;;;;;5056710;28;19996;-76
2023/10/07 04:13:07;;;;;;;;;;;;;;;;;;5054659;28;19950;-75
2023/10/07 04:15:34;;;;;;;;;;;;;;;;;;5065388;28;19913;-75
2023/10/07 04:18:00;;;;;;;;;;;;;;;;;;5060480;28;20303;-76
2023/10/07 04:20:47;;;;;;;;;;;;;;;;;;5052474;28;19912;-76
2023/10/07 04:23:12;;;;;;;;;;;;;;;;;;5063295;28;20472;-76
2023/10/07 04:25:42;;;;;;;;;;;;;;;;;;5063935;28;19909;-75
2023/10/07 04:28:13;;;;;;;;;;;;;;;;;;5072449;28;19954;-73
2023/10/07 04:30:39;;;;;;;;;;;;;;;;;;5056481;28;20012;-73
2023/10/07 04:33:10;;;;;;;;;;;;;;;;;;5049053;28;20392;-72
2023/10/07 04:35:37;;;;;;;;;;;;;;;;;;5062230;28;19909;-73
2023/10/07 04:38:13;;;;;;;;;;;;;;;;;;5059289;28;19920;-73
2023/10/07 04:43:48;;;;;;;;;;;;;;;;;;5058861;28;19950;-74
2023/10/07 04:46:24;;;;;;;;;;;;;;;;;;5068038;28;19912;-74
2023/10/07 04:48:56;;;;;;;;;;;;;;;;;;5056211;28;19966;-73
2023/10/07 04:51:46;;;;;;;;;;;;;;;;;;5064583;28;20399;-75
2023/10/07 04:54:11;;;;;;;;;;;;;;;;;;5053279;28;19987;-75
2023/10/07 04:56:37;;;;;;;;;;;;;;;;;;5069302;28;19985;-74
2023/10/07 04:59:06;;;;;;;;;;;;;;;;;;5057552;28;20418;-72
2023/10/07 05:01:33;;;;;;;;;;;;;;;;;;5045512;28;19912;-74
2023/10/07 05:04:03;;;;;;;;;;;;;;;;;;5043609;28;19908;-75
2023/10/07 05:06:29;;;;;;;;;;;;;;;;;;5056094;28;19916;-76
2023/10/07 05:08:55;;;;;;;;;;;;;;;;;;5057815;28;20371;-73
2023/10/07 05:11:26;;;;;;;;;;;;;;;;;;5064718;28;19913;-74
2023/10/07 05:13:52;;;;;;;;;;;;;;;;;;5063457;28;19909;-72
2023/10/07 05:16:19;;;;;;;;;;;;;;;;;;5056512;28;19962;-73
2023/10/07 05:18:45;;;;;;;;;;;;;;;;;;5068550;28;20441;-76
2023/10/07 05:21:11;;;;;;;;;;;;;;;;;;5060893;28;20033;-74
2023/10/07 05:23:43;;;;;;;;;;;;;;;;;;5061579;28;19929;-76
2023/10/07 05:26:09;;;;;;;;;;;;;;;;;;5057620;28;20387;-74
2023/10/07 05:28:35;;;;;;;;;;;;;;;;;;5066662;28;19947;-74
2023/10/07 05:31:03;;;;;;;;;;;;;;;;;;5056629;28;19908;-74
2023/10/07 05:33:32;;;;;;;;;;;;;;;;;;5062453;28;19939;-73
2023/10/07 05:35:58;;;;;;;;;;;;;;;;;;5064745;28;19909;-74
2023/10/07 05:38:25;;;;;;;;;;;;;;;;;;5037441;28;19909;-74
2023/10/07 05:40:50;;;;;;;;;;;;;;;;;;5055305;28;19999;-73
2023/10/07 05:43:16;;;;;;;;;;;;;;;;;;5064691;28;20365;-74
2023/10/07 05:45:42;;;;;;;;;;;;;;;;;;5060183;28;20054;-73
2023/10/07 05:48:08;;;;;;;;;;;;;;;;;;5065971;28;20021;-73
2023/10/07 05:50:34;;;;;;;;;;;;;;;;;;5056089;28;20368;-72
2023/10/07 05:53:03;;;;;;;;;;;;;;;;;;5066921;28;20138;-75
2023/10/07 05:55:29;;;;;;;;;;;;;;;;;;5062406;28;19916;-74
2023/10/07 05:57:55;;;;;;;;;;;;;;;;;;5061136;28;19909;-73
2023/10/07 06:00:24;;;;;;;;;;;;;;;;;;5067922;28;19919;-73
2023/10/07 06:02:52;;;;;;;;;;;;;;;;;;5041920;28;19910;-72
2023/10/07 06:05:20;;;;;;;;;;;;;;;;;;5058977;28;20047;-72
2023/10/07 06:07:46;;;;;;;;;;;;;;;;;;5062528;28;19913;-72
2023/10/07 06:10:12;;;;;;;;;;;;;;;;;;5055055;28;19963;-74
2023/10/07 06:12:47;;;;;;;;;;;;;;;;;;5043101;28;19959;-75
2023/10/07 06:15:13;;;;;;;;;;;;;;;;;;5063944;28;19955;-73
2023/10/07 06:17:42;;;;;;;;;;;;;;;;;;5052099;28;20284;-74
2023/10/07 06:20:14;;;;;;;;;;;;;;;;;;5065408;28;19913;-73
2023/10/07 06:22:45;;;;;;;;;;;;;;;;;;5054697;28;19916;-73
2023/10/07 06:25:12;;;;;;;;;;;;;;;;;;5069835;28;19913;-74
2023/10/07 06:27:38;;;;;;;;;;;;;;;;;;5070172;28;19908;-73
2023/10/07 06:30:07;;;;;;;;;;;;;;;;;;5063715;28;19909;-72
2023/10/07 06:32:44;;;;;;;;;;;;;;;;;;5071065;28;19916;-72
2023/10/07 06:35:13;;;;;;;;;;;;;;;;;;5061297;28;20050;-73
2023/10/07 06:37:39;;;;;;;;;;;;;;;;;;5065699;28;19992;-73
2023/10/07 06:40:21;;;;;;;;;;;;;;;;;;5063114;28;19951;-73
2023/10/07 06:42:47;;;;;;;;;;;;;;;;;;5072353;28;19955;-74
2023/10/07 06:45:17;;;;;;;;;;;;;;;;;;5059638;28;20011;-74
2023/10/07 06:47:43;;;;;;;;;;;;;;;;;;5059916;28;19913;-74
2023/10/07 06:50:17;;;;;;;;;;;;;;;;;;5065318;28;20395;-73
2023/10/07 06:52:44;;;;;;;;;;;;;;;;;;5054187;28;19913;-73
2023/10/07 06:55:10;;;;;;;;;;;;;;;;;;5043596;28;19908;-74
2023/10/07 06:57:36;;;;;;;;;;;;;;;;;;5052760;28;20277;-73
2023/10/07 07:00:09;;;;;;;;;;;;;;;;;;5046307;28;19923;-73
2023/10/07 07:02:35;;;;;;;;;;;;;;;;;;5054238;28;19916;-73
2023/10/07 07:05:02;;;;;;;;;;;;;;;;;;5053830;28;19916;-72
2023/10/07 07:07:28;;;;;;;;;;;;;;;;;;5064947;28;19924;-72
2023/10/07 07:09:58;;;;;;;;;;;;;;;;;;5062596;28;19974;-72
2023/10/07 07:12:26;;;;;;;;;;;;;;;;;;5057002;28;19930;-72
2023/10/07 07:14:53;;;;;;;;;;;;;;;;;;5056446;28;19999;-72
2023/10/07 07:22:35;;;;;;;;;;;;;;;;;;5057956;28;20361;-72
2023/10/07 07:25:10;;;;;;;;;;;;;;;;;;5068914;28;19909;-72
2023/10/07 07:27:36;;;;;;;;;;;;;;;;;;5054314;28;20269;-72
2023/10/07 07:30:05;;;;;;;;;;;;;;;;;;5067532;28;19908;-72
2023/10/07 07:35:03;;;;;;;;;;;;;;;;;;5079683;28;19929;-72
2023/10/07 07:37:34;;;;;;;;;;;;;;;;;;5087328;28;19912;-72
2023/10/07 07:40:09;;;;;;;;;;;;;;;;;;5088065;28;19918;-72
2023/10/07 07:42:35;;;;;;;;;;;;;;;;;;5083066;28;20367;-72
2023/10/07 07:45:01;;;;;;;;;;;;;;;;;;5079848;28;19916;-71
2023/10/07 07:47:31;;;;;;;;;;;;;;;;;;5081915;28;19916;-72
2023/10/07 07:49:57;;;;;;;;;;;;;;;;;;5069079;28;19978;-73
2023/10/07 07:52:23;;;;;;;;;;;;;;;;;;5081801;28;19908;-72
2023/10/07 07:54:49;;;;;;;;;;;;;;;;;;5080974;28;19909;-71
2023/10/07 07:57:16;;;;;;;;;;;;;;;;;;5081608;28;19923;-71
2023/10/07 07:59:43;;;;;;;;;;;;;;;;;;5084761;28;19916;-71
2023/10/07 08:02:12;;;;;;;;;;;;;;;;;;5085731;28;19948;-72
2023/10/07 08:04:39;;;;;;;;;;;;;;;;;;5083020;28;19915;-72
2023/10/07 08:07:06;;;;;;;;;;;;;;;;;;5055529;28;19912;-71
2023/10/07 08:09:36;;;;;;;;;;;;;;;;;;5083701;28;19915;-71
2023/10/07 08:12:09;;;;;;;;;;;;;;;;;;5085673;28;19909;-72
2023/10/07 08:14:35;;;;;;;;;;;;;;;;;;5081828;28;19916;-72
2023/10/07 08:17:03;;;;;;;;;;;;;;;;;;5061734;28;19909;-72
2023/10/07 08:19:32;;;;;;;;;;;;;;;;;;5082652;28;20314;-73
2023/10/07 08:22:02;;;;;;;;;;;;;;;;;;5085429;28;19912;-72
2023/10/07 08:24:30;;;;;;;;;;;;;;;;;;5056139;28;19909;-72
2023/10/07 08:27:03;;;;;;;;;;;;;;;;;;5062780;28;19920;-72
2023/10/07 08:29:31;;;;;;;;;;;;;;;;;;5082886;28;19908;-72
2023/10/07 08:31:57;;;;;;;;;;;;;;;;;;5062348;28;19909;-72
2023/10/07 08:34:31;;;;;;;;;;;;;;;;;;5081034;28;19999;-72
2023/10/07 08:37:00;;;;;;;;;;;;;;;;;;5074828;28;19909;-72
2023/10/07 08:39:28;;;;;;;;;;;;;;;;;;5073685;28;19950;-72
2023/10/07 08:41:57;;;;;;;;;;;;;;;;;;5084983;28;19973;-72
2023/10/07 08:44:29;;;;;;;;;;;;;;;;;;5082532;28;20299;-73
2023/10/07 08:47:03;;;;;;;;;;;;;;;;;;5074460;28;19935;-73
2023/10/07 08:49:32;;;;;;;;;;;;;;;;;;5082558;28;20025;-74
2023/10/07 08:51:59;;;;;;;;;;;;;;;;;;5084809;28;20409;-72
2023/10/07 08:54:37;;;;;;;;;;;;;;;;;;5083897;28;19912;-73
2023/10/07 08:57:14;;;;;;;;;;;;;;;;;;5056408;28;20003;-72
2023/10/07 08:59:42;;;;;;;;;;;;;;;;;;5083710;28;20291;-72
2023/10/07 09:02:17;;;;;;;;;;;;;;;;;;5084579;28;19967;-73
2023/10/07 09:04:42;;;;;;;;;;;;;;;;;;5081088;28;19924;-73
2023/10/07 09:07:08;;;;;;;;;;;;;;;;;;5079215;28;19912;-71
2023/10/07 09:09:43;;;;;;;;;;;;;;;;;;5055978;28;19916;-71
2023/10/07 09:12:15;;;;;;;;;;;;;;;;;;5084400;28;19908;-72
2023/10/07 09:14:51;;;;;;;;;;;;;;;;;;5078706;28;19919;-71
2023/10/07 09:17:20;;;;;;;;;;;;;;;;;;5080732;28;19913;-71
2023/10/07 09:19:49;;;;;;;;;;;;;;;;;;5084022;28;20411;-72
2023/10/07 09:22:14;;;;;;;;;;;;;;;;;;5058615;28;19919;-71
2023/10/07 09:24:44;;;;;;;;;;;;;;;;;;5061250;28;19909;-72
2023/10/07 09:27:13;;;;;;;;;;;;;;;;;;5077324;28;19918;-71
2023/10/07 09:29:39;;;;;;;;;;;;;;;;;;5082775;28;20398;-71
2023/10/07 09:32:07;;;;;;;;;;;;;;;;;;5059953;28;20007;-72
2023/10/07 09:34:42;;;;;;;;;;;;;;;;;;5079711;28;20431;-72
2023/10/07 09:37:11;;;;;;;;;;;;;;;;;;5080286;28;19913;-71
2023/10/07 09:39:54;;;;;;;;;;;;;;;;;;5082475;28;19908;-71
2023/10/07 09:42:26;;;;;;;;;;;;;;;;;;5083786;28;19912;-71
2023/10/07 09:44:53;;;;;;;;;;;;;;;;;;5073291;28;19912;-71
2023/10/07 09:47:21;;;;;;;;;;;;;;;;;;5079804;28;19913;-72
2023/10/07 09:49:47;;;;;;;;;;;;;;;;;;5067116;28;20371;-72
2023/10/07 09:52:17;;;;;;;;;;;;;;;;;;5058454;28;19949;-71
2023/10/07 09:54:47;;;;;;;;;;;;;;;;;;5060497;28;19916;-71
2023/10/07 09:57:22;;;;;;;;;;;;;;;;;;5079643;28;19940;-72
2023/10/07 09:59:48;;;;;;;;;;;;;;;;;;5066933;28;19991;-72
2023/10/07 10:02:24;;;;;;;;;;;;;;;;;;5083471;28;19908;-73
2023/10/07 10:04:50;;;;;;;;;;;;;;;;;;5071794;28;19930;-72
2023/10/07 10:07:16;;;;;;;;;;;;;;;;;;5080141;28;19909;-71
2023/10/07 10:10:05;;;;;;;;;;;;;;;;;;5082689;28;19919;-72
2023/10/07 10:12:32;;;;;;;;;;;;;;;;;;5056156;28;20489;-73
2023/10/07 10:15:50;;;;;;;;;;;;;;;;;;;;;
2023/10/07 10:17:39;;;;;;;;;;;;;;;;;;5082096;28;19970;-72
2023/10/07 10:20:12;;;;;;;;;;;;;;;;;;5083890;28;19912;-71
2023/10/07 10:22:38;;;;;;;;;;;;;;;;;;5054787;28;19908;-72
2023/10/07 10:25:14;;;;;;;;;;;;;;;;;;5054067;28;19917;-72
2023/10/07 10:27:40;;;;;;;;;;;;;;;;;;5083251;28;19961;-72
2023/10/07 10:30:06;;;;;;;;;;;;;;;;;;5059168;28;20122;-72
2023/10/07 10:32:32;;;;;;;;;;;;;;;;;;5079775;28;20018;-72
2023/10/07 10:34:59;;;;;;;;;;;;;;;;;;5053291;28;19927;-71
2023/10/07 10:37:26;;;;;;;;;;;;;;;;;;5081051;28;20509;-71
2023/10/07 10:39:53;;;;;;;;;;;;;;;;;;5089487;28;19908;-72
2023/10/07 10:42:19;;;;;;;;;;;;;;;;;;5089705;28;19919;-72
2023/10/07 10:44:48;;;;;;;;;;;;;;;;;;5084184;28;19924;-72
2023/10/07 10:47:17;;;;;;;;;;;;;;;;;;5086061;28;20011;-71
2023/10/07 10:49:44;;;;;;;;;;;;;;;;;;5069417;28;19920;-72
2023/10/07 10:52:10;;;;;;;;;;;;;;;;;;5089499;28;20368;-72
2023/10/07 10:54:39;;;;;;;;;;;;;;;;;;5086407;28;20456;-72
2023/10/07 10:57:08;;;;;;;;;;;;;;;;;;5085985;28;19909;-72
2023/10/07 10:59:35;;;;;;;;;;;;;;;;;;5087847;28;19938;-72
2023/10/07 11:02:01;;;;;;;;;;;;;;;;;;5066137;28;19912;-72
2023/10/07 11:04:29;;;;;;;;;;;;;;;;;;5085284;28;19943;-72
2023/10/07 11:06:55;;;;;;;;;;;;;;;;;;5086050;28;19931;-73
2023/10/07 11:09:25;;;;;;;;;;;;;;;;;;5086178;28;19938;-72
2023/10/07 11:11:52;;;;;;;;;;;;;;;;;;5067068;28;19908;-72
2023/10/07 11:14:20;;;;;;;;;;;;;;;;;;5084487;28;19909;-71
2023/10/07 11:16:46;;;;;;;;;;;;;;;;;;5084807;28;19999;-71
2023/10/07 11:19:12;;;;;;;;;;;;;;;;;;5086177;28;20434;-72
2023/10/07 11:21:39;;;;;;;;;;;;;;;;;;5088090;28;19917;-72
2023/10/07 11:24:06;;;;;;;;;;;;;;;;;;5088474;28;20678;-72
2023/10/07 11:26:32;;;;;;;;;;;;;;;;;;5088213;28;19908;-72
2023/10/07 11:29:00;;;;;;;;;;;;;;;;;;5085890;28;19992;-71
2023/10/07 11:31:26;;;;;;;;;;;;;;;;;;5077629;28;20002;-72
2023/10/07 11:33:52;;;;;;;;;;;;;;;;;;5088241;28;19916;-72
2023/10/07 11:36:18;;;;;;;;;;;;;;;;;;5089615;28;20385;-73
2023/10/07 11:38:44;;;;;;;;;;;;;;;;;;5086535;28;19912;-73
2023/10/07 11:41:16;;;;;;;;;;;;;;;;;;5061713;28;19955;-72
2023/10/07 11:43:43;;;;;;;;;;;;;;;;;;5085870;28;19917;-72
2023/10/07 11:46:11;;;;;;;;;;;;;;;;;;5089305;28;19908;-73
2023/10/07 11:48:39;;;;;;;;;;;;;;;;;;5060806;28;19912;-72
2023/10/07 11:51:06;;;;;;;;;;;;;;;;;;5082131;28;19991;-71
2023/10/07 11:53:32;;;;;;;;;;;;;;;;;;5062465;28;19908;-72
2023/10/07 11:55:58;;;;;;;;;;;;;;;;;;5070506;28;19908;-71
2023/10/07 11:58:24;;;;;;;;;;;;;;;;;;5063565;28;20073;-71
2023/10/07 12:00:50;;;;;;;;;;;;;;;;;;5074032;28;20000;-72
2023/10/07 12:03:18;;;;;;;;;;;;;;;;;;5080064;28;20008;-72
2023/10/07 12:05:45;;;;;;;;;;;;;;;;;;5073126;28;19916;-72
2023/10/07 12:08:12;;;;;;;;;;;;;;;;;;5075048;28;19909;-72
2023/10/07 12:10:38;;;;;;;;;;;;;;;;;;5079455;28;19968;-73
2023/10/07 12:13:07;;;;;;;;;;;;;;;;;;5057137;28;19916;-72
2023/10/07 12:15:33;;;;;;;;;;;;;;;;;;5082849;28;19915;-71
2023/10/07 12:18:02;;;;;;;;;;;;;;;;;;5085127;28;20337;-71
2023/10/07 12:20:28;;;;;;;;;;;;;;;;;;5058361;28;20438;-72
2023/10/07 12:22:55;;;;;;;;;;;;;;;;;;5074135;28;19923;-71
2023/10/07 12:25:21;;;;;;;;;;;;;;;;;;5081021;28;19977;-71
2023/10/07 12:27:47;;;;;;;;;;;;;;;;;;5085047;28;19999;-71
2023/10/07 12:30:14;;;;;;;;;;;;;;;;;;5085072;28;19956;-72
2023/10/07 12:32:40;;;;;;;;;;;;;;;;;;5082786;28;20278;-72
2023/10/07 12:35:05;;;;;;;;;;;;;;;;;;5080693;28;19998;-73
2023/10/07 12:37:31;;;;;;;;;;;;;;;;;;5082616;28;20004;-72
2023/10/07 12:39:57;;;;;;;;;;;;;;;;;;5061190;28;19989;-72
2023/10/07 12:42:27;;;;;;;;;;;;;;;;;;5062590;28;19912;-72
2023/10/07 12:44:53;;;;;;;;;;;;;;;;;;5074524;28;19912;-70
2023/10/07 12:47:21;;;;;;;;;;;;;;;;;;5081016;28;20383;-71
2023/10/07 12:49:47;;;;;;;;;;;;;;;;;;5065789;28;19908;-71
2023/10/07 12:52:16;;;;;;;;;;;;;;;;;;5059455;28;20017;-72
2023/10/07 12:54:44;;;;;;;;;;;;;;;;;;5080430;28;19908;-72
2023/10/07 12:57:15;;;;;;;;;;;;;;;;;;5080461;28;19908;-72
2023/10/07 12:59:42;;;;;;;;;;;;;;;;;;5063995;28;19908;-72
2023/10/07 13:02:09;;;;;;;;;;;;;;;;;;5084541;28;19908;-72
2023/10/07 13:04:35;;;;;;;;;;;;;;;;;;5081895;28;19909;-72
2023/10/07 13:07:03;;;;;;;;;;;;;;;;;;5080796;28;19908;-72
2023/10/07 13:09:32;;;;;;;;;;;;;;;;;;5081630;28;20372;-72
2023/10/07 13:11:58;;;;;;;;;;;;;;;;;;5077793;28;19909;-71
2023/10/07 13:14:27;;;;;;;;;;;;;;;;;;5073993;28;19917;-72
2023/10/07 13:16:56;;;;;;;;;;;;;;;;;;5071558;28;19916;-71
2023/10/07 13:19:26;;;;;;;;;;;;;;;;;;5080206;28;19913;-71
2023/10/07 13:21:52;;;;;;;;;;;;;;;;;;5061951;28;19923;-71
2023/10/07 13:24:17;;;;;;;;;;;;;;;;;;5078875;28;19912;-71
2023/10/07 13:26:44;;;;;;;;;;;;;;;;;;5081063;28;20303;-69
2023/10/07 13:29:10;;;;;;;;;;;;;;;;;;5080555;28;19908;-72
2023/10/07 13:31:36;;;;;;;;;;;;;;;;;;5082426;28;20376;-72
2023/10/07 13:34:04;;;;;;;;;;;;;;;;;;5089539;22;19932;-71
2023/10/07 13:36:30;;;;;;;;;;;;;;;;;;5070238;28;19935;-71
2023/10/07 13:38:57;;;;;;;;;;;;;;;;;;5063155;28;20375;-73
2023/10/07 13:41:23;;;;;;;;;;;;;;;;;;5071477;28;20510;-71
2023/10/07 13:43:49;;;;;;;;;;;;;;;;;;5057723;28;20372;-72
2023/10/07 13:46:15;;;;;;;;;;;;;;;;;;5063872;28;19908;-72
2023/10/07 13:48:43;;;;;;;;;;;;;;;;;;5060363;28;20379;-73
2023/10/07 13:51:09;;;;;;;;;;;;;;;;;;5064088;28;19909;-72
2023/10/07 13:53:51;;;;;;;;;;;;;;;;;;5060037;28;19962;-72
2023/10/07 13:56:23;;;;;;;;;;;;;;;;;;5061596;28;19909;-72
2023/10/07 13:58:49;;;;;;;;;;;;;;;;;;5060994;28;20372;-72
2023/10/07 14:01:15;;;;;;;;;;;;;;;;;;5064112;28;19924;-73
2023/10/07 14:03:41;;;;;;;;;;;;;;;;;;5063589;28;20159;-72
2023/10/07 14:06:07;;;;;;;;;;;;;;;;;;5063216;28;19923;-73
2023/10/07 14:08:37;;;;;;;;;;;;;;;;;;5062884;28;19908;-72
2023/10/07 14:11:04;;;;;;;;;;;;;;;;;;5066382;28;19912;-73
2023/10/07 14:13:33;;;;;;;;;;;;;;;;;;5069803;28;19913;-75
2023/10/07 14:16:00;;;;;;;;;;;;;;;;;;5058411;28;19954;-73
2023/10/07 14:18:26;;;;;;;;;;;;;;;;;;5064588;28;19921;-73
2023/10/07 14:20:52;;;;;;;;;;;;;;;;;;5064459;28;19939;-73
2023/10/07 14:23:18;;;;;;;;;;;;;;;;;;5058021;28;19995;-72
2023/10/07 14:25:43;;;;;;;;;;;;;;;;;;5059606;28;20066;-71
2023/10/07 14:28:09;;;;;;;;;;;;;;;;;;5065613;28;19923;-72
2023/10/07 14:30:35;;;;;;;;;;;;;;;;;;5054355;28;19943;-72
2023/10/07 14:33:01;;;;;;;;;;;;;;;;;;5055710;28;19916;-72
2023/10/07 14:35:27;;;;;;;;;;;;;;;;;;5061457;28;20380;-72
2023/10/07 14:37:56;;;;;;;;;;;;;;;;;;5063049;28;19909;-72
2023/10/07 14:40:23;;;;;;;;;;;;;;;;;;5054601;28;19913;-72
2023/10/07 14:42:50;;;;;;;;;;;;;;;;;;5054153;28;20326;-73
2023/10/07 14:45:16;;;;;;;;;;;;;;;;;;5058666;28;19908;-73
2023/10/07 14:47:41;;;;;;;;;;;;;;;;;;5062679;28;19923;-74
2023/10/07 14:50:07;;;;;;;;;;;;;;;;;;5065015;28;19915;-73
2023/10/07 14:52:34;;;;;;;;;;;;;;;;;;5051774;28;20299;-73
2023/10/07 14:55:05;;;;;;;;;;;;;;;;;;5054721;28;19969;-75
2023/10/07 14:57:31;;;;;;;;;;;;;;;;;;5062962;28;20004;-73
2023/10/07 14:59:57;;;;;;;;;;;;;;;;;;5061331;28;20371;-73
2023/10/07 15:02:23;;;;;;;;;;;;;;;;;;5054490;28;19954;-72
2023/10/07 15:04:49;;;;;;;;;;;;;;;;;;5065151;28;19931;-72
2023/10/07 15:07:20;;;;;;;;;;;;;;;;;;5057530;28;20340;-73
2023/10/07 15:09:48;;;;;;;;;;;;;;;;;;5059672;28;19909;-74
2023/10/07 15:12:16;;;;;;;;;;;;;;;;;;5051194;28;19909;-74
2023/10/07 15:14:42;;;;;;;;;;;;;;;;;;5061374;28;20380;-74
2023/10/07 15:17:09;;;;;;;;;;;;;;;;;;5063104;28;19924;-74
2023/10/07 15:19:36;;;;;;;;;;;;;;;;;;5063027;28;19979;-73
2023/10/07 15:22:05;;;;;;;;;;;;;;;;;;5064274;28;19981;-73
2023/10/07 15:24:31;;;;;;;;;;;;;;;;;;5055726;28;19915;-72
2023/10/07 15:26:57;;;;;;;;;;;;;;;;;;5070366;28;20004;-74
2023/10/07 15:29:24;;;;;;;;;;;;;;;;;;5062189;28;19913;-74
2023/10/07 15:31:50;;;;;;;;;;;;;;;;;;5062285;28;19917;-75
2023/10/07 15:34:16;;;;;;;;;;;;;;;;;;5052121;28;19917;-75
2023/10/07 15:36:42;;;;;;;;;;;;;;;;;;5062866;28;19913;-74
2023/10/07 15:39:08;;;;;;;;;;;;;;;;;;5058522;28;20287;-72
2023/10/07 15:41:34;;;;;;;;;;;;;;;;;;5064467;28;20004;-74
2023/10/07 15:44:00;;;;;;;;;;;;;;;;;;5059687;28;20003;-74
2023/10/07 15:46:25;;;;;;;;;;;;;;;;;;5070877;28;20003;-74
2023/10/07 15:48:52;;;;;;;;;;;;;;;;;;5057876;28;19915;-76
2023/10/07 15:51:18;;;;;;;;;;;;;;;;;;5058868;28;20047;-75
2023/10/07 15:53:47;;;;;;;;;;;;;;;;;;5061303;28;20043;-74
2023/10/07 15:56:13;;;;;;;;;;;;;;;;;;5070305;28;19908;-74
2023/10/07 15:58:39;;;;;;;;;;;;;;;;;;5055821;28;20558;-75
2023/10/07 16:01:09;;;;;;;;;;;;;;;;;;5059697;28;19920;-75
2023/10/07 16:03:35;;;;;;;;;;;;;;;;;;5056521;28;19912;-75
2023/10/07 16:06:03;;;;;;;;;;;;;;;;;;5062354;28;19995;-74
2023/10/07 16:08:37;;;;;;;;;;;;;;;;;;5057088;28;19912;-74
2023/10/07 16:11:09;;;;;;;;;;;;;;;;;;5056800;28;19962;-75
2023/10/07 16:18:46;;;;;;;;;;;;;;;;;;4789411;26;19925;-69
2023/10/07 16:21:12;;;;;;;;;;;;;;;;;;5059337;28;19913;-68
2023/10/07 16:23:39;;;;;;;;;;;;;;;;;;5064056;28;20285;-72
2023/10/07 16:26:04;;;;;;;;;;;;;;;;;;5073328;28;20287;-71
2023/10/07 16:28:30;;;;;;;;;;;;;;;;;;5063993;28;19914;-73
2023/10/07 16:30:56;;;;;;;;;;;;;;;;;;5061438;28;19913;-73
2023/10/07 16:33:23;;;;;;;;;;;;;;;;;;5061060;28;20296;-73
2023/10/07 16:35:49;;;;;;;;;;;;;;;;;;5055104;28;19912;-72
2023/10/07 16:38:15;;;;;;;;;;;;;;;;;;5064548;28;19908;-73
2023/10/07 16:40:41;;;;;;;;;;;;;;;;;;5062337;28;19912;-73
2023/10/07 16:43:07;;;;;;;;;;;;;;;;;;5062684;28;19916;-70
2023/10/07 16:45:33;;;;;;;;;;;;;;;;;;5063566;28;19909;-72
2023/10/07 16:47:58;;;;;;;;;;;;;;;;;;5064025;28;19916;-72
2023/10/07 16:50:24;;;;;;;;;;;;;;;;;;5062731;28;20480;-73
2023/10/07 16:52:51;;;;;;;;;;;;;;;;;;5060422;28;19909;-72
2023/10/07 16:55:19;;;;;;;;;;;;;;;;;;5075058;28;19959;-73
2023/10/07 16:57:45;;;;;;;;;;;;;;;;;;5064067;28;19917;-73
2023/10/07 17:00:15;;;;;;;;;;;;;;;;;;5064235;28;19939;-73
2023/10/07 17:02:41;;;;;;;;;;;;;;;;;;5061701;28;20303;-72
2023/10/07 17:05:08;;;;;;;;;;;;;;;;;;5059948;28;19909;-73
2023/10/07 17:07:34;;;;;;;;;;;;;;;;;;5043919;28;20386;-72
2023/10/07 17:10:00;;;;;;;;;;;;;;;;;;5049158;28;19916;-73
2023/10/07 17:12:27;;;;;;;;;;;;;;;;;;5069037;28;19912;-72
2023/10/07 17:14:54;;;;;;;;;;;;;;;;;;5063752;28;19963;-73
2023/10/07 17:17:20;;;;;;;;;;;;;;;;;;5069041;28;19978;-73
2023/10/07 17:19:47;;;;;;;;;;;;;;;;;;5067272;28;19916;-73
2023/10/07 17:22:13;;;;;;;;;;;;;;;;;;5063431;28;19952;-73
2023/10/07 17:24:39;;;;;;;;;;;;;;;;;;5061024;28;19966;-73
2023/10/07 17:27:04;;;;;;;;;;;;;;;;;;5060313;28;19908;-73
2023/10/07 17:29:30;;;;;;;;;;;;;;;;;;5061803;28;19916;-74